Time;durP1;ratioP1;P1;durP2;ratioP2;P2;SDS_P1;SDS_P2;PMS_P1;PMS_P2;Temp;Humidity;BMP_temperature;BMP_pressure;BME280_temperature;BME280_humidity;BME280_pressure;Samples;Min_cycle;Max_cycle;Signal;HPM_P1;HPM_P2
2022/07/16 00:02:59;;;;;;;4.15;2.20;;;;;;;;;;4991288;28;20535;-83
2022/07/16 00:05:24;;;;;;;3.25;2.10;;;;;;;;;;5000876;28;20002;-83
2022/07/16 00:07:50;;;;;;;3.15;2.25;;;;;;;;;;4991757;28;20114;-82
2022/07/16 00:10:15;;;;;;;4.70;2.28;;;;;;;;;;4983719;28;20026;-81
2022/07/16 00:12:40;;;;;;;4.40;2.40;;;;;;;;;;4978239;28;20046;-82
2022/07/16 00:15:07;;;;;;;7.65;2.45;;;;;;;;;;4977442;28;20456;-83
2022/07/16 00:17:32;;;;;;;5.85;2.50;;;;;;;;;;4989191;28;20018;-81
2022/07/16 00:19:58;;;;;;;2.88;2.53;;;;;;;;;;4980804;28;20041;-82
2022/07/16 00:22:23;;;;;;;4.63;2.40;;;;;;;;;;4963187;28;20030;-81
2022/07/16 00:24:49;;;;;;;3.72;2.00;;;;;;;;;;4979285;28;20023;-84
2022/07/16 00:27:14;;;;;;;6.05;2.72;;;;;;;;;;4986612;28;20023;-81
2022/07/16 00:29:39;;;;;;;3.75;2.35;;;;;;;;;;4964747;28;20027;-82
2022/07/16 00:32:05;;;;;;;3.55;2.30;;;;;;;;;;4979522;28;20115;-83
2022/07/16 00:34:31;;;;;;;2.92;2.40;;;;;;;;;;4988511;28;20045;-83
2022/07/16 00:36:56;;;;;;;2.92;2.13;;;;;;;;;;4968844;28;20019;-84
2022/07/16 00:39:22;;;;;;;7.35;2.45;;;;;;;;;;4966975;28;20321;-83
2022/07/16 00:41:48;;;;;;;5.35;2.08;;;;;;;;;;4995735;28;20485;-82
2022/07/16 00:44:20;;;;;;;2.53;2.30;;;;;;;;;;4968988;28;20023;-83
2022/07/16 00:46:46;;;;;;;4.72;2.30;;;;;;;;;;4979419;28;20040;-83
2022/07/16 00:49:13;;;;;;;3.38;2.33;;;;;;;;;;4965400;28;20031;-83
2022/07/16 00:51:57;;;;;;;5.40;2.72;;;;;;;;;;4989232;28;20026;-83
2022/07/16 00:54:22;;;;;;;5.47;2.50;;;;;;;;;;4965044;28;20023;-83
2022/07/16 00:56:50;;;;;;;3.22;2.30;;;;;;;;;;4994568;28;20061;-83
2022/07/16 00:59:16;;;;;;;4.45;2.35;;;;;;;;;;4993407;28;20044;-84
2022/07/16 01:01:41;;;;;;;3.90;2.17;;;;;;;;;;4988001;28;20090;-83
2022/07/16 01:04:10;;;;;;;3.67;2.83;;;;;;;;;;4973401;28;20452;-83
2022/07/16 01:06:35;;;;;;;2.65;2.30;;;;;;;;;;4971898;28;20316;-83
2022/07/16 01:09:02;;;;;;;4.03;2.70;;;;;;;;;;4981088;28;20007;-83
2022/07/16 01:11:31;;;;;;;3.63;2.38;;;;;;;;;;4983770;28;20034;-82
2022/07/16 01:14:11;;;;;;;4.00;2.25;;;;;;;;;;4994108;28;20023;-83
2022/07/16 01:16:37;;;;;;;5.13;2.58;;;;;;;;;;4994270;28;20018;-83
2022/07/16 01:19:04;;;;;;;3.03;2.35;;;;;;;;;;4996864;28;20044;-83
2022/07/16 01:21:29;;;;;;;2.50;2.30;;;;;;;;;;4995040;28;20066;-82
2022/07/16 01:23:54;;;;;;;5.18;2.20;;;;;;;;;;4980793;28;20026;-82
2022/07/16 01:26:20;;;;;;;3.65;2.55;;;;;;;;;;4980780;28;20038;-82
2022/07/16 01:28:45;;;;;;;3.60;2.33;;;;;;;;;;4979268;28;20011;-82
2022/07/16 01:31:15;;;;;;;2.75;2.50;;;;;;;;;;4999646;28;20040;-84
2022/07/16 01:33:41;;;;;;;4.65;3.10;;;;;;;;;;4971580;28;20066;-84
2022/07/16 01:36:12;;;;;;;5.55;2.47;;;;;;;;;;4986283;28;20010;-84
2022/07/16 01:38:58;;;;;;;3.35;2.60;;;;;;;;;;4971837;28;20478;-83
2022/07/16 01:41:25;;;;;;;3.92;2.42;;;;;;;;;;4970039;28;20022;-84
2022/07/16 01:43:57;;;;;;;4.97;2.35;;;;;;;;;;4960011;28;20037;-84
2022/07/16 01:46:26;;;;;;;4.28;2.42;;;;;;;;;;4980684;28;20058;-84
2022/07/16 01:48:55;;;;;;;4.85;3.08;;;;;;;;;;4958546;28;20395;-83
2022/07/16 01:51:24;;;;;;;6.35;2.60;;;;;;;;;;4964021;28;20396;-83
2022/07/16 01:53:58;;;;;;;5.03;2.35;;;;;;;;;;4972377;28;20616;-83
2022/07/16 01:56:24;;;;;;;4.75;2.30;;;;;;;;;;4979262;28;20034;-83
2022/07/16 01:58:51;;;;;;;3.60;2.33;;;;;;;;;;4998306;28;20019;-83
2022/07/16 02:01:22;;;;;;;3.45;2.05;;;;;;;;;;4980400;28;20019;-83
2022/07/16 02:03:55;;;;;;;3.20;2.03;;;;;;;;;;4990258;28;20038;-82
2022/07/16 02:06:21;;;;;;;6.35;2.72;;;;;;;;;;4995528;28;20006;-82
2022/07/16 02:08:46;;;;;;;3.42;2.55;;;;;;;;;;4968463;28;20037;-82
2022/07/16 02:11:12;;;;;;;5.00;2.78;;;;;;;;;;4990087;28;20018;-84
2022/07/16 02:13:38;;;;;;;3.00;2.40;;;;;;;;;;4995429;28;20030;-84
2022/07/16 02:16:04;;;;;;;4.35;2.35;;;;;;;;;;4965297;28;20141;-84
2022/07/16 02:18:29;;;;;;;5.47;2.65;;;;;;;;;;4973931;28;20050;-84
2022/07/16 02:20:55;;;;;;;17.63;3.25;;;;;;;;;;4979172;28;20041;-84
2022/07/16 02:23:21;;;;;;;5.35;2.92;;;;;;;;;;4988652;28;20022;-85
2022/07/16 02:25:47;;;;;;;6.28;3.00;;;;;;;;;;4968838;28;20105;-83
2022/07/16 02:28:12;;;;;;;12.55;2.40;;;;;;;;;;4956849;28;20034;-83
2022/07/16 02:30:39;;;;;;;5.43;2.40;;;;;;;;;;4974553;28;20037;-83
2022/07/16 02:33:05;;;;;;;2.50;2.28;;;;;;;;;;4962855;28;20065;-83
2022/07/16 02:35:31;;;;;;;3.72;2.50;;;;;;;;;;4963985;28;20026;-82
2022/07/16 02:37:57;;;;;;;6.13;2.60;;;;;;;;;;4966715;28;20026;-83
2022/07/16 02:40:23;;;;;;;3.92;2.55;;;;;;;;;;4973552;28;20053;-85
2022/07/16 02:42:49;;;;;;;9.02;3.90;;;;;;;;;;4971106;28;20097;-82
2022/07/16 02:45:14;;;;;;;6.68;3.53;;;;;;;;;;4983468;28;20117;-82
2022/07/16 02:47:40;;;;;;;7.13;3.58;;;;;;;;;;4973243;28;20157;-82
2022/07/16 02:50:07;;;;;;;6.05;3.40;;;;;;;;;;4964847;28;20031;-83
2022/07/16 02:52:32;;;;;;;7.75;3.95;;;;;;;;;;4962005;28;20026;-83
2022/07/16 02:54:58;;;;;;;5.57;3.13;;;;;;;;;;4970426;28;20058;-83
2022/07/16 02:57:24;;;;;;;8.55;4.15;;;;;;;;;;4989552;28;20067;-83
2022/07/16 02:59:52;;;;;;;4.78;3.17;;;;;;;;;;4970013;28;20018;-83
2022/07/16 03:02:22;;;;;;;4.45;2.72;;;;;;;;;;4971454;28;20038;-85
2022/07/16 03:04:50;;;;;;;5.40;2.70;;;;;;;;;;4972416;28;20030;-83
2022/07/16 03:07:16;;;;;;;4.00;2.83;;;;;;;;;;4980522;28;20174;-84
2022/07/16 03:09:42;;;;;;;6.07;2.78;;;;;;;;;;4992579;28;20055;-84
2022/07/16 03:12:08;;;;;;;4.95;2.85;;;;;;;;;;4967296;28;20026;-83
2022/07/16 03:14:34;;;;;;;7.40;3.13;;;;;;;;;;4976720;28;20062;-83
2022/07/16 03:16:59;;;;;;;3.78;2.72;;;;;;;;;;4945674;28;20070;-83
2022/07/16 03:19:25;;;;;;;4.90;2.60;;;;;;;;;;4978610;28;20476;-83
2022/07/16 03:21:50;;;;;;;3.08;2.67;;;;;;;;;;4977323;28;20496;-84
2022/07/16 03:24:16;;;;;;;7.05;2.85;;;;;;;;;;4979528;28;20126;-82
2022/07/16 03:26:42;;;;;;;8.07;2.97;;;;;;;;;;4978208;28;20019;-83
2022/07/16 03:29:07;;;;;;;6.18;2.83;;;;;;;;;;4996628;28;20026;-83
2022/07/16 03:31:35;;;;;;;4.32;2.47;;;;;;;;;;4992215;28;20037;-83
2022/07/16 03:34:00;;;;;;;7.05;3.30;;;;;;;;;;4971007;28;20045;-82
2022/07/16 03:36:26;;;;;;;5.78;2.92;;;;;;;;;;4968887;28;20023;-83
2022/07/16 03:39:04;;;;;;;3.85;2.70;;;;;;;;;;4975561;28;20065;-84
2022/07/16 03:41:32;;;;;;;4.60;2.50;;;;;;;;;;4978577;28;20050;-84
2022/07/16 03:44:06;;;;;;;5.88;3.00;;;;;;;;;;4971875;28;20549;-82
2022/07/16 03:46:35;;;;;;;4.85;2.78;;;;;;;;;;4965558;28;20097;-82
2022/07/16 03:49:01;;;;;;;5.28;2.90;;;;;;;;;;4987238;28;20021;-83
2022/07/16 03:51:31;;;;;;;9.40;3.25;;;;;;;;;;4981852;28;20469;-83
2022/07/16 03:53:56;;;;;;;8.85;3.38;;;;;;;;;;4967042;28;20117;-82
2022/07/16 03:56:22;;;;;;;6.43;3.33;;;;;;;;;;4980063;28;20046;-82
2022/07/16 03:58:48;;;;;;;6.55;3.10;;;;;;;;;;4983864;28;20026;-82
2022/07/16 04:01:15;;;;;;;4.82;3.00;;;;;;;;;;4985478;28;20026;-85
2022/07/16 04:03:40;;;;;;;6.22;3.13;;;;;;;;;;4982049;28;20057;-84
2022/07/16 04:06:06;;;;;;;5.53;2.72;;;;;;;;;;4972237;28;20389;-85
2022/07/16 04:08:32;;;;;;;4.55;2.65;;;;;;;;;;4981608;28;20050;-84
2022/07/16 04:10:59;;;;;;;12.25;3.03;;;;;;;;;;4990153;28;20117;-84
2022/07/16 04:13:25;;;;;;;7.30;2.90;;;;;;;;;;4971890;28;20446;-84
2022/07/16 04:15:51;;;;;;;9.45;2.75;;;;;;;;;;4955746;28;20110;-84
2022/07/16 04:18:16;;;;;;;5.50;2.70;;;;;;;;;;4966683;28;20077;-83
2022/07/16 04:20:43;;;;;;;4.93;2.88;;;;;;;;;;4991139;28;20061;-84
2022/07/16 04:23:09;;;;;;;3.63;2.60;;;;;;;;;;4985496;28;20034;-83
2022/07/16 04:25:39;;;;;;;7.90;2.45;;;;;;;;;;4957791;28;20049;-83
2022/07/16 04:28:05;;;;;;;4.38;2.50;;;;;;;;;;4964521;23;20594;-83
2022/07/16 04:30:31;;;;;;;4.70;2.75;;;;;;;;;;4975962;28;20038;-83
2022/07/16 04:32:57;;;;;;;4.45;2.40;;;;;;;;;;4999061;28;20387;-83
2022/07/16 04:35:22;;;;;;;4.50;2.25;;;;;;;;;;4977366;28;20479;-83
2022/07/16 04:37:48;;;;;;;6.53;2.30;;;;;;;;;;4969347;28;20027;-83
2022/07/16 04:40:14;;;;;;;8.75;2.58;;;;;;;;;;4954219;28;20030;-83
2022/07/16 04:42:40;;;;;;;4.95;2.30;;;;;;;;;;4977720;28;20026;-84
2022/07/16 04:45:08;;;;;;;3.00;2.25;;;;;;;;;;4961632;28;20400;-83
2022/07/16 04:47:33;;;;;;;3.00;2.30;;;;;;;;;;4971526;28;20019;-83
2022/07/16 04:49:59;;;;;;;3.67;2.80;;;;;;;;;;4964118;28;20030;-83
2022/07/16 04:52:24;;;;;;;5.53;2.63;;;;;;;;;;4979637;28;20034;-83
2022/07/16 04:54:49;;;;;;;5.00;2.97;;;;;;;;;;4980886;28;20082;-84
2022/07/16 04:57:15;;;;;;;8.77;2.70;;;;;;;;;;4973168;28;20023;-84
2022/07/16 04:59:40;;;;;;;4.82;2.53;;;;;;;;;;4962429;28;20035;-84
2022/07/16 05:04:50;;;;;;;5.22;2.75;;;;;;;;;;4984629;28;20037;-84
2022/07/16 05:07:15;;;;;;;5.90;3.00;;;;;;;;;;4978321;28;20024;-83
2022/07/16 05:09:40;;;;;;;6.18;3.08;;;;;;;;;;4964276;28;20033;-85
2022/07/16 05:12:06;;;;;;;3.92;2.30;;;;;;;;;;4974023;28;20026;-84
2022/07/16 05:14:31;;;;;;;3.47;2.25;;;;;;;;;;4970721;28;20034;-84
2022/07/16 05:16:57;;;;;;;3.88;2.10;;;;;;;;;;4949317;28;20433;-84
2022/07/16 05:19:23;;;;;;;6.05;2.75;;;;;;;;;;4962210;28;20037;-86
2022/07/16 05:21:49;;;;;;;2.33;1.85;;;;;;;;;;4952586;28;20557;-84
2022/07/16 05:24:14;;;;;;;4.15;2.50;;;;;;;;;;4978279;28;20035;-84
2022/07/16 05:26:40;;;;;;;5.95;2.15;;;;;;;;;;4969712;28;20023;-84
2022/07/16 05:29:05;;;;;;;2.92;1.90;;;;;;;;;;4971513;28;20492;-83
2022/07/16 05:31:30;;;;;;;5.63;1.95;;;;;;;;;;4966077;28;20083;-83
2022/07/16 05:33:56;;;;;;;2.38;2.05;;;;;;;;;;4975150;28;20090;-84
2022/07/16 05:36:21;;;;;;;6.30;2.30;;;;;;;;;;4972724;28;20019;-83
2022/07/16 05:38:46;;;;;;;6.15;2.28;;;;;;;;;;4974417;28;20041;-83
2022/07/16 05:41:12;;;;;;;9.85;2.20;;;;;;;;;;4973895;28;20484;-83
2022/07/16 05:43:37;;;;;;;9.52;1.92;;;;;;;;;;4974395;28;20023;-83
2022/07/16 05:46:02;;;;;;;3.22;2.10;;;;;;;;;;4969820;28;20019;-82
2022/07/16 05:48:28;;;;;;;4.88;2.47;;;;;;;;;;4964229;28;20018;-81
2022/07/16 05:50:54;;;;;;;2.22;1.98;;;;;;;;;;4956240;28;20093;-85
2022/07/16 05:53:20;;;;;;;2.53;1.80;;;;;;;;;;4963220;28;20014;-83
2022/07/16 05:55:45;;;;;;;1.95;1.67;;;;;;;;;;4969239;28;20023;-83
2022/07/16 05:58:10;;;;;;;4.25;1.98;;;;;;;;;;4962112;28;20030;-83
2022/07/16 06:00:36;;;;;;;5.00;2.75;;;;;;;;;;4970795;28;20045;-84
2022/07/16 06:03:01;;;;;;;4.07;2.20;;;;;;;;;;4967406;28;20038;-83
2022/07/16 06:05:27;;;;;;;3.22;2.00;;;;;;;;;;4963941;28;20023;-82
2022/07/16 06:07:52;;;;;;;2.92;1.80;;;;;;;;;;4962485;28;20034;-82
2022/07/16 06:10:18;;;;;;;4.85;2.15;;;;;;;;;;4970646;28;20396;-82
2022/07/16 06:12:44;;;;;;;3.03;2.05;;;;;;;;;;4972002;28;20038;-83
2022/07/16 06:15:10;;;;;;;5.38;2.33;;;;;;;;;;4954680;28;20387;-81
2022/07/16 06:17:37;;;;;;;3.38;2.28;;;;;;;;;;4970357;28;20073;-82
2022/07/16 06:20:02;;;;;;;6.32;2.42;;;;;;;;;;4968343;28;20035;-83
2022/07/16 06:22:28;;;;;;;3.85;2.05;;;;;;;;;;4971548;28;20023;-82
2022/07/16 06:24:53;;;;;;;3.90;2.20;;;;;;;;;;4966981;28;20476;-82
2022/07/16 06:27:18;;;;;;;2.83;1.50;;;;;;;;;;4974720;28;20145;-82
2022/07/16 06:29:44;;;;;;;5.45;1.90;;;;;;;;;;4970157;28;20029;-83
2022/07/16 06:32:09;;;;;;;7.32;2.03;;;;;;;;;;4953357;28;20023;-82
2022/07/16 06:34:35;;;;;;;3.20;1.90;;;;;;;;;;4964621;28;20023;-82
2022/07/16 06:37:00;;;;;;;4.53;1.85;;;;;;;;;;4962220;28;20015;-82
2022/07/16 06:39:25;;;;;;;2.55;1.90;;;;;;;;;;4960018;28;20033;-82
2022/07/16 06:41:51;;;;;;;3.25;1.80;;;;;;;;;;4971419;28;20098;-83
2022/07/16 06:44:16;;;;;;;3.63;1.90;;;;;;;;;;4975239;28;20082;-83
2022/07/16 06:46:41;;;;;;;3.55;1.55;;;;;;;;;;4968902;28;20034;-83
2022/07/16 06:49:07;;;;;;;2.25;1.60;;;;;;;;;;4945820;29;20102;-84
2022/07/16 06:51:32;;;;;;;1.67;1.42;;;;;;;;;;4956986;28;20057;-84
2022/07/16 06:53:57;;;;;;;2.92;1.88;;;;;;;;;;4965901;28;20030;-84
2022/07/16 06:56:23;;;;;;;7.63;2.55;;;;;;;;;;4974444;28;20019;-85
2022/07/16 06:58:48;;;;;;;1.92;1.70;;;;;;;;;;4952637;28;20022;-84
2022/07/16 07:01:14;;;;;;;4.03;2.20;;;;;;;;;;4980208;28;20110;-84
2022/07/16 07:03:40;;;;;;;4.75;1.67;;;;;;;;;;4977635;28;20492;-83
2022/07/16 07:06:06;;;;;;;3.92;1.83;;;;;;;;;;4975959;28;20031;-84
2022/07/16 07:08:31;;;;;;;3.45;1.50;;;;;;;;;;4976574;28;20031;-84
2022/07/16 07:10:59;;;;;;;4.60;2.10;;;;;;;;;;4967503;28;20015;-83
2022/07/16 07:13:25;;;;;;;3.47;1.73;;;;;;;;;;4962766;28;20015;-85
2022/07/16 07:15:51;;;;;;;7.32;1.98;;;;;;;;;;4971965;28;20027;-86
2022/07/16 07:18:16;;;;;;;3.05;1.77;;;;;;;;;;4981305;28;20095;-86
2022/07/16 07:20:41;;;;;;;3.08;1.92;;;;;;;;;;4980673;28;21188;-85
2022/07/16 07:23:07;;;;;;;3.53;2.00;;;;;;;;;;4962854;28;20160;-86
2022/07/16 07:25:33;;;;;;;4.75;2.00;;;;;;;;;;4980923;28;20010;-85
2022/07/16 07:27:58;;;;;;;3.42;1.67;;;;;;;;;;4977121;28;20034;-85
2022/07/16 07:30:23;;;;;;;5.78;1.98;;;;;;;;;;4969213;28;20014;-85
2022/07/16 07:32:49;;;;;;;4.30;1.95;;;;;;;;;;4960598;28;20106;-84
2022/07/16 07:35:14;;;;;;;2.85;1.90;;;;;;;;;;4974353;28;20027;-84
2022/07/16 07:37:39;;;;;;;3.90;1.80;;;;;;;;;;4976709;28;20035;-85
2022/07/16 07:40:05;;;;;;;2.72;1.65;;;;;;;;;;4974046;28;20060;-84
2022/07/16 07:42:31;;;;;;;2.78;1.55;;;;;;;;;;4970378;28;20027;-85
2022/07/16 07:44:57;;;;;;;3.55;2.05;;;;;;;;;;4981915;28;20027;-85
2022/07/16 07:47:22;;;;;;;4.18;1.63;;;;;;;;;;4961098;28;20031;-85
2022/07/16 07:49:48;;;;;;;2.95;1.50;;;;;;;;;;4971003;28;20408;-85
2022/07/16 07:52:13;;;;;;;2.53;1.52;;;;;;;;;;4979404;28;20022;-84
2022/07/16 07:54:39;;;;;;;3.80;1.67;;;;;;;;;;4967764;28;20030;-85
2022/07/16 07:57:05;;;;;;;3.50;1.60;;;;;;;;;;4977938;28;20495;-85
2022/07/16 07:59:30;;;;;;;4.53;1.73;;;;;;;;;;4979585;28;20034;-85
2022/07/16 08:01:55;;;;;;;2.25;1.42;;;;;;;;;;4974754;28;20029;-85
2022/07/16 08:04:21;;;;;;;2.83;1.60;;;;;;;;;;4972675;28;20061;-85
2022/07/16 08:06:46;;;;;;;7.65;1.77;;;;;;;;;;4971990;28;20019;-85
2022/07/16 08:09:11;;;;;;;2.15;1.52;;;;;;;;;;4979452;28;20014;-85
2022/07/16 08:11:37;;;;;;;2.35;1.50;;;;;;;;;;4979689;28;20096;-86
2022/07/16 08:14:02;;;;;;;3.05;1.50;;;;;;;;;;4967717;28;20114;-85
2022/07/16 08:16:28;;;;;;;1.65;1.30;;;;;;;;;;4970075;28;20023;-86
2022/07/16 08:18:53;;;;;;;3.88;1.60;;;;;;;;;;4951541;28;20476;-85
2022/07/16 08:21:18;;;;;;;1.52;1.38;;;;;;;;;;4976765;28;20106;-85
2022/07/16 08:26:28;;;;;;;3.20;1.42;;;;;;;;;;4973802;28;20029;-85
2022/07/16 08:28:53;;;;;;;2.97;1.20;;;;;;;;;;4977707;28;20106;-83
2022/07/16 08:31:19;;;;;;;2.47;1.10;;;;;;;;;;4966667;28;20066;-84
2022/07/16 08:33:44;;;;;;;2.88;1.30;;;;;;;;;;4965993;28;20082;-85
2022/07/16 08:36:09;;;;;;;4.40;1.30;;;;;;;;;;4974376;28;20078;-84
2022/07/16 08:38:35;;;;;;;3.70;1.10;;;;;;;;;;4970393;28;20082;-84
2022/07/16 08:41:02;;;;;;;1.60;0.80;;;;;;;;;;4979947;28;20023;-86
2022/07/16 08:43:29;;;;;;;3.05;1.20;;;;;;;;;;4970652;28;20111;-85
2022/07/16 08:45:55;;;;;;;3.80;1.17;;;;;;;;;;4969189;28;20106;-85
2022/07/16 08:48:20;;;;;;;3.53;1.17;;;;;;;;;;4967136;28;20019;-85
2022/07/16 08:50:47;;;;;;;1.25;1.15;;;;;;;;;;4975146;28;20027;-82
2022/07/16 08:53:14;;;;;;;1.27;1.10;;;;;;;;;;4970722;28;20050;-82
2022/07/16 08:55:40;;;;;;;5.72;1.75;;;;;;;;;;4964554;28;20042;-83
2022/07/16 08:58:08;;;;;;;1.80;1.48;;;;;;;;;;4973352;28;20030;-82
2022/07/16 09:00:34;;;;;;;2.20;1.25;;;;;;;;;;4972528;28;20023;-83
2022/07/16 09:03:00;;;;;;;2.63;1.40;;;;;;;;;;4982034;28;20018;-84
2022/07/16 09:05:26;;;;;;;2.05;1.40;;;;;;;;;;4969995;28;20027;-82
2022/07/16 09:07:53;;;;;;;3.65;1.35;;;;;;;;;;4972760;28;20034;-83
2022/07/16 09:10:19;;;;;;;1.58;1.17;;;;;;;;;;4962914;28;20023;-82
2022/07/16 09:12:46;;;;;;;1.73;1.20;;;;;;;;;;4958410;28;20083;-84
2022/07/16 09:15:24;;;;;;;1.85;1.27;;;;;;;;;;4976116;28;20019;-83
2022/07/16 09:18:20;;;;;;;1.20;1.05;;;;;;;;;;4973611;28;20038;-83
2022/07/16 09:20:55;;;;;;;1.70;1.30;;;;;;;;;;4975796;28;20432;-83
2022/07/16 09:23:25;;;;;;;2.17;1.15;;;;;;;;;;4967356;28;20030;-82
2022/07/16 09:25:59;;;;;;;2.25;1.30;;;;;;;;;;4971867;28;20031;-84
2022/07/16 09:28:26;;;;;;;2.03;1.13;;;;;;;;;;4969978;28;20026;-84
2022/07/16 09:30:52;;;;;;;3.70;1.52;;;;;;;;;;4970328;28;20026;-83
2022/07/16 09:33:22;;;;;;;2.70;1.40;;;;;;;;;;4969110;28;20038;-82
2022/07/16 09:36:04;;;;;;;2.10;1.38;;;;;;;;;;4976212;28;20448;-83
2022/07/16 09:38:44;;;;;;;4.07;1.40;;;;;;;;;;4975552;28;20428;-83
2022/07/16 09:41:10;;;;;;;2.17;1.13;;;;;;;;;;4977021;28;20110;-83
2022/07/16 09:43:40;;;;;;;3.38;1.38;;;;;;;;;;4958873;28;20077;-83
2022/07/16 09:46:05;;;;;;;2.45;1.38;;;;;;;;;;4950073;28;20043;-83
2022/07/16 09:48:37;;;;;;;2.55;1.40;;;;;;;;;;4965524;28;20083;-84
2022/07/16 09:51:25;;;;;;;3.88;1.10;;;;;;;;;;4963634;28;20510;-83
2022/07/16 09:53:51;;;;;;;1.00;1.00;;;;;;;;;;4969114;28;20019;-83
2022/07/16 09:56:20;;;;;;;1.65;1.20;;;;;;;;;;4967798;28;20023;-83
2022/07/16 09:58:50;;;;;;;2.45;1.05;;;;;;;;;;4968665;28;20488;-82
2022/07/16 10:01:16;;;;;;;2.35;0.95;;;;;;;;;;4957540;28;20023;-83
2022/07/16 10:03:43;;;;;;;2.60;0.95;;;;;;;;;;4974398;28;20031;-83
2022/07/16 10:06:09;;;;;;;4.82;1.20;;;;;;;;;;4968143;28;20019;-83
2022/07/16 10:08:34;;;;;;;2.85;1.40;;;;;;;;;;4967567;28;20045;-83
2022/07/16 10:11:00;;;;;;;3.53;1.10;;;;;;;;;;4969253;28;20054;-81
2022/07/16 10:13:27;;;;;;;1.58;1.33;;;;;;;;;;4963750;28;20047;-82
2022/07/16 10:15:53;;;;;;;2.20;1.10;;;;;;;;;;4974637;28;20018;-82
2022/07/16 10:18:34;;;;;;;2.05;1.15;;;;;;;;;;4974860;28;20058;-83
2022/07/16 10:21:07;;;;;;;2.27;1.40;;;;;;;;;;4972604;28;20101;-84
2022/07/16 10:23:34;;;;;;;1.63;1.10;;;;;;;;;;4969174;28;20317;-84
2022/07/16 10:26:03;;;;;;;4.40;1.40;;;;;;;;;;4974860;28;20019;-83
2022/07/16 10:28:49;;;;;;;3.53;1.20;;;;;;;;;;4988941;28;20018;-83
2022/07/16 10:34:46;;;;;;;2.63;1.30;;;;;;;;;;4890077;29;20040;-83
2022/07/16 10:37:25;;;;;;;1.48;1.20;;;;;;;;;;4896905;29;20025;-84
2022/07/16 10:40:04;;;;;;;4.47;1.67;;;;;;;;;;4932600;28;20042;-84
2022/07/16 10:42:29;;;;;;;5.38;1.65;;;;;;;;;;4969240;28;20023;-87
2022/07/16 10:44:55;;;;;;;3.22;1.48;;;;;;;;;;4976226;28;20159;-84
2022/07/16 10:47:40;;;;;;;2.78;1.25;;;;;;;;;;4971469;28;20495;-84
2022/07/16 10:50:17;;;;;;;2.85;1.08;;;;;;;;;;4969192;28;20058;-87
2022/07/16 10:52:45;;;;;;;2.42;1.00;;;;;;;;;;4971075;28;20033;-87
2022/07/16 10:55:10;;;;;;;0.80;0.80;;;;;;;;;;4971571;28;20035;-86
2022/07/16 10:57:38;;;;;;;3.33;1.20;;;;;;;;;;4977744;28;20046;-86
2022/07/16 11:00:06;;;;;;;2.80;1.45;;;;;;;;;;4967949;28;20054;-86
2022/07/16 11:02:37;;;;;;;5.75;1.50;;;;;;;;;;4971721;28;20493;-85
2022/07/16 11:05:03;;;;;;;3.25;1.10;;;;;;;;;;4970656;28;20063;-86
2022/07/16 11:07:33;;;;;;;2.63;1.30;;;;;;;;;;4969344;28;20023;-86
2022/07/16 11:09:59;;;;;;;1.65;1.00;;;;;;;;;;4970460;28;20022;-87
2022/07/16 11:12:30;;;;;;;4.00;1.17;;;;;;;;;;4976350;28;20022;-87
2022/07/16 11:14:58;;;;;;;2.17;1.05;;;;;;;;;;4973067;28;20027;-86
2022/07/16 11:17:29;;;;;;;1.88;1.20;;;;;;;;;;4975621;28;20035;-87
2022/07/16 11:20:00;;;;;;;1.00;1.00;;;;;;;;;;4983280;28;20187;-84
2022/07/16 11:22:29;;;;;;;1.63;1.20;;;;;;;;;;4967177;28;20025;-85
2022/07/16 11:25:03;;;;;;;1.02;0.95;;;;;;;;;;4976354;28;20038;-85
2022/07/16 11:27:36;;;;;;;2.05;0.77;;;;;;;;;;4984207;28;20027;-85
2022/07/16 11:30:04;;;;;;;1.90;1.00;;;;;;;;;;4975021;28;20050;-85
2022/07/16 11:32:29;;;;;;;1.10;0.90;;;;;;;;;;4975971;28;20039;-85
2022/07/16 11:34:55;;;;;;;1.98;1.33;;;;;;;;;;4983534;28;20049;-84
2022/07/16 11:37:21;;;;;;;3.75;1.10;;;;;;;;;;4984085;28;20138;-83
2022/07/16 11:39:48;;;;;;;3.40;1.00;;;;;;;;;;4978264;28;20025;-86
2022/07/16 11:42:18;;;;;;;1.25;1.05;;;;;;;;;;4987265;28;20027;-85
2022/07/16 11:44:45;;;;;;;1.90;1.25;;;;;;;;;;4985238;28;20063;-84
2022/07/16 11:47:11;;;;;;;2.35;1.27;;;;;;;;;;4984242;28;20029;-84
2022/07/16 11:49:38;;;;;;;1.10;0.93;;;;;;;;;;4961094;28;20054;-85
2022/07/16 11:52:22;;;;;;;1.25;1.00;;;;;;;;;;4977878;28;20023;-86
2022/07/16 11:54:48;;;;;;;2.75;1.00;;;;;;;;;;4980314;28;20050;-86
2022/07/16 11:57:15;;;;;;;2.45;1.08;;;;;;;;;;4953823;28;20060;-85
2022/07/16 11:59:47;;;;;;;3.17;1.83;;;;;;;;;;4985719;28;20038;-85
2022/07/16 12:02:16;;;;;;;3.30;1.15;;;;;;;;;;4978179;28;20062;-87
2022/07/16 12:04:47;;;;;;;2.15;0.90;;;;;;;;;;4969154;28;20035;-86
2022/07/16 12:07:24;;;;;;;1.33;1.00;;;;;;;;;;4970271;28;20017;-87
2022/07/16 12:09:52;;;;;;;1.05;0.90;;;;;;;;;;4998769;23;20050;-83
2022/07/16 12:12:26;;;;;;;12.05;1.50;;;;;;;;;;4990708;28;20090;-85
2022/07/16 12:14:53;;;;;;;1.55;0.73;;;;;;;;;;4977625;28;20058;-84
2022/07/16 12:17:27;;;;;;;4.78;1.05;;;;;;;;;;4980112;28;20033;-84
2022/07/16 12:20:25;;;;;;;1.35;0.85;;;;;;;;;;4971994;28;20026;-84
2022/07/16 12:23:01;;;;;;;1.63;0.90;;;;;;;;;;4971575;28;20111;-86
2022/07/16 12:25:32;;;;;;;2.13;1.00;;;;;;;;;;4958936;28;20114;-86
2022/07/16 12:28:06;;;;;;;1.23;1.10;;;;;;;;;;4966969;28;20030;-83
2022/07/16 12:30:49;;;;;;;1.95;1.10;;;;;;;;;;4986020;28;20026;-86
2022/07/16 12:33:15;;;;;;;1.00;0.90;;;;;;;;;;4967593;28;20047;-86
2022/07/16 12:35:40;;;;;;;1.70;1.00;;;;;;;;;;4977434;28;20042;-81
2022/07/16 12:38:06;;;;;;;1.77;1.00;;;;;;;;;;4998906;28;20026;-85
2022/07/16 12:40:33;;;;;;;2.42;0.98;;;;;;;;;;4991061;28;20019;-84
2022/07/16 12:43:00;;;;;;;1.85;0.90;;;;;;;;;;4999085;28;20007;-86
2022/07/16 12:45:25;;;;;;;1.08;0.73;;;;;;;;;;4983838;28;20054;-86
2022/07/16 12:47:52;;;;;;;2.22;0.85;;;;;;;;;;5000065;28;20079;-83
2022/07/16 12:50:18;;;;;;;2.35;1.08;;;;;;;;;;5007423;28;20013;-84
2022/07/16 12:52:50;;;;;;;2.88;1.13;;;;;;;;;;4981678;28;20039;-85
2022/07/16 13:00:44;;;;;;;0.80;0.80;;;;;;;;;;4979607;28;20053;-83
2022/07/16 13:03:09;;;;;;;1.10;1.00;;;;;;;;;;4988948;28;20456;-83
2022/07/16 13:05:34;;;;;;;1.10;0.80;;;;;;;;;;4981319;28;20023;-84
2022/07/16 13:08:00;;;;;;;4.55;0.90;;;;;;;;;;4980082;28;20035;-84
2022/07/16 13:10:25;;;;;;;1.70;0.90;;;;;;;;;;4969708;28;20037;-83
2022/07/16 13:12:50;;;;;;;1.60;0.93;;;;;;;;;;4999340;28;20022;-83
2022/07/16 13:15:19;;;;;;;2.58;1.05;;;;;;;;;;4995927;28;20038;-83
2022/07/16 13:17:45;;;;;;;1.98;1.10;;;;;;;;;;4992780;28;20034;-84
2022/07/16 13:22:59;;;;;;;1.23;0.90;;;;;;;;;;4972318;28;20034;-86
2022/07/16 13:25:24;;;;;;;3.83;1.00;;;;;;;;;;4986220;28;20027;-83
2022/07/16 13:27:50;;;;;;;1.88;1.30;;;;;;;;;;4985825;28;20105;-84
2022/07/16 13:30:15;;;;;;;2.47;0.93;;;;;;;;;;4993701;28;20027;-83
2022/07/16 13:32:41;;;;;;;3.97;1.27;;;;;;;;;;4989016;28;20030;-83
2022/07/16 13:35:07;;;;;;;3.45;1.27;;;;;;;;;;4990624;28;20022;-84
2022/07/16 13:37:33;;;;;;;1.17;1.02;;;;;;;;;;4987535;28;20026;-84
2022/07/16 13:39:58;;;;;;;0.90;0.80;;;;;;;;;;4988088;28;20034;-83
2022/07/16 13:42:23;;;;;;;6.45;1.40;;;;;;;;;;4987653;28;20023;-82
2022/07/16 13:44:49;;;;;;;1.60;1.10;;;;;;;;;;4988837;28;20460;-83
2022/07/16 13:47:14;;;;;;;2.00;1.52;;;;;;;;;;4969512;28;20023;-84
2022/07/16 13:49:40;;;;;;;1.33;1.10;;;;;;;;;;4987612;28;20095;-83
2022/07/16 13:52:05;;;;;;;2.10;1.15;;;;;;;;;;4991483;28;20469;-82
2022/07/16 13:54:31;;;;;;;2.38;1.27;;;;;;;;;;4973924;28;20094;-82
2022/07/16 14:00:00;;;;;;;2.97;1.58;;;;;;;;;;4952889;29;20027;-85
2022/07/16 14:02:26;;;;;;;4.13;1.50;;;;;;;;;;4956814;29;20034;-82
2022/07/16 14:04:51;;;;;;;2.00;1.70;;;;;;;;;;4974655;28;20042;-83
2022/07/16 14:07:16;;;;;;;3.08;1.20;;;;;;;;;;4991759;28;20057;-83
2022/07/16 14:09:42;;;;;;;4.55;1.63;;;;;;;;;;4995664;28;20038;-83
2022/07/16 14:12:08;;;;;;;4.05;1.67;;;;;;;;;;4994820;28;20018;-83
2022/07/16 14:14:33;;;;;;;4.80;1.42;;;;;;;;;;4974427;28;20062;-82
2022/07/16 14:16:59;;;;;;;1.75;1.10;;;;;;;;;;4989139;28;20388;-83
2022/07/16 14:19:24;;;;;;;8.38;1.23;;;;;;;;;;4993983;28;20042;-83
2022/07/16 14:21:50;;;;;;;1.95;1.40;;;;;;;;;;4988963;28;20015;-83
2022/07/16 14:24:27;;;;;;;2.03;1.20;;;;;;;;;;4998913;28;20477;-86
2022/07/16 14:26:53;;;;;;;1.25;1.15;;;;;;;;;;4981993;28;20015;-83
2022/07/16 14:29:18;;;;;;;2.22;1.50;;;;;;;;;;4992347;28;20026;-86
2022/07/16 14:31:44;;;;;;;1.13;1.00;;;;;;;;;;4973153;28;20115;-82
2022/07/16 14:34:09;;;;;;;1.55;1.40;;;;;;;;;;4999910;28;20030;-83
2022/07/16 14:36:34;;;;;;;2.33;1.42;;;;;;;;;;4993887;28;20014;-83
2022/07/16 14:39:00;;;;;;;1.70;1.30;;;;;;;;;;4978969;28;20035;-83
2022/07/16 14:41:25;;;;;;;1.42;1.33;;;;;;;;;;4987428;28;20048;-82
2022/07/16 14:43:51;;;;;;;2.33;1.38;;;;;;;;;;4985748;28;20034;-82
2022/07/16 14:46:17;;;;;;;3.35;1.42;;;;;;;;;;4978764;28;20026;-83
2022/07/16 14:48:45;;;;;;;3.10;1.40;;;;;;;;;;4984860;28;20027;-81
2022/07/16 14:51:32;;;;;;;2.05;1.20;;;;;;;;;;4964749;28;20125;-83
2022/07/16 14:53:58;;;;;;;2.83;2.30;;;;;;;;;;4960607;28;20027;-82
2022/07/16 14:56:26;;;;;;;1.80;1.20;;;;;;;;;;4983671;28;20117;-82
2022/07/16 14:58:52;;;;;;;2.50;1.50;;;;;;;;;;4987331;28;20030;-82
2022/07/16 15:01:22;;;;;;;2.25;1.70;;;;;;;;;;4971264;28;20050;-81
2022/07/16 15:03:48;;;;;;;1.83;1.33;;;;;;;;;;5001251;28;20050;-82
2022/07/16 15:06:13;;;;;;;1.33;1.08;;;;;;;;;;4989991;28;20026;-82